createdAt,value
2018-11-23T00:00:22.759Z,3.95
2018-11-23T00:02:51.561Z,3.95
2018-11-23T00:05:19.719Z,3.91
2018-11-23T00:07:48.081Z,3.88
2018-11-23T00:10:19.780Z,3.96
2018-11-23T00:12:47.980Z,3.83
2018-11-23T00:15:17.107Z,3.84
2018-11-23T00:17:45.071Z,3.80
2018-11-23T00:20:14.473Z,3.75
2018-11-23T00:22:42.499Z,3.82
2018-11-23T00:25:12.795Z,3.76
2018-11-23T00:27:41.063Z,3.70
2018-11-23T00:30:13.529Z,3.64
2018-11-23T00:32:41.592Z,3.71
2018-11-23T00:35:11.506Z,3.67
2018-11-23T00:37:39.902Z,3.64
2018-11-23T00:40:10.012Z,3.69
2018-11-23T00:42:38.043Z,3.68
2018-11-23T00:45:07.625Z,3.69
2018-11-23T00:47:36.033Z,3.56
2018-11-23T00:50:04.113Z,3.61
2018-11-23T00:52:32.095Z,3.54
2018-11-23T00:55:00.048Z,3.55
2018-11-23T00:57:27.926Z,3.45
2018-11-23T00:59:56.499Z,3.48
2018-11-23T01:02:24.436Z,3.59
2018-11-23T01:04:52.718Z,3.61
2018-11-23T01:07:20.656Z,3.51
2018-11-23T01:09:48.618Z,3.50
2018-11-23T01:12:16.906Z,3.57
2018-11-23T01:14:45.164Z,3.50
2018-11-23T01:17:13.393Z,3.57
2018-11-23T01:19:41.350Z,3.50
2018-11-23T01:22:09.314Z,3.50
2018-11-23T01:24:37.603Z,3.56
2018-11-23T01:27:05.831Z,3.51
2018-11-23T01:29:33.763Z,3.57
2018-11-23T01:32:01.985Z,3.53
2018-11-23T01:34:29.983Z,3.48
2018-11-23T01:36:58.463Z,3.48
2018-11-23T01:39:26.407Z,3.43
2018-11-23T01:41:54.733Z,3.42
2018-11-23T01:44:22.652Z,3.42
2018-11-23T01:46:50.587Z,3.41
2018-11-23T01:49:18.991Z,3.41
2018-11-23T01:51:46.963Z,3.43
2018-11-23T01:54:15.232Z,3.42
2018-11-23T01:56:43.143Z,3.39
2018-11-23T01:59:11.072Z,3.34
2018-11-23T02:01:38.986Z,3.38
2018-11-23T02:04:06.888Z,3.36
2018-11-23T02:06:34.794Z,3.32
2018-11-23T02:09:02.875Z,3.31
2018-11-23T02:11:30.820Z,3.31
2018-11-23T02:13:59.048Z,3.37
2018-11-23T02:16:27.956Z,3.37
2018-11-23T02:18:56.130Z,3.29
2018-11-23T02:21:24.392Z,3.30
2018-11-23T02:23:53.044Z,3.27
2018-11-23T02:26:21.282Z,3.30
2018-11-23T02:28:49.406Z,3.30
2018-11-23T02:31:17.315Z,3.29
2018-11-23T02:33:45.564Z,3.32
2018-11-23T02:36:13.465Z,3.33
2018-11-23T02:38:41.409Z,3.35
2018-11-23T02:41:09.649Z,3.19
2018-11-23T02:43:37.560Z,3.21
2018-11-23T02:46:05.825Z,3.23
2018-11-23T02:48:33.734Z,3.17
2018-11-23T02:51:01.617Z,3.09
2018-11-23T02:53:30.267Z,3.11
2018-11-23T02:55:58.174Z,3.04
2018-11-23T02:58:26.073Z,2.95
2018-11-23T03:00:54.298Z,2.98
2018-11-23T03:03:22.482Z,2.92
2018-11-23T03:05:50.661Z,2.84
2018-11-23T03:08:19.172Z,2.85
2018-11-23T03:10:47.386Z,2.83
2018-11-23T03:13:15.272Z,2.86
2018-11-23T03:15:43.882Z,2.84
2018-11-23T03:18:11.809Z,2.96
2018-11-23T03:20:39.694Z,2.96
2018-11-23T03:23:07.604Z,2.97
2018-11-23T03:25:36.171Z,3.00
2018-11-23T03:28:04.083Z,3.05
2018-11-23T03:30:32.325Z,3.05
2018-11-23T03:33:00.741Z,3.08
2018-11-23T03:35:28.656Z,3.05
2018-11-23T03:37:56.585Z,3.13
2018-11-23T03:40:24.844Z,3.07
2018-11-23T03:42:52.743Z,3.04
2018-11-23T03:45:20.946Z,3.16
2018-11-23T03:47:48.876Z,3.06
2018-11-23T03:50:17.498Z,3.12
2018-11-23T03:52:45.648Z,3.16
2018-11-23T03:55:13.580Z,3.16
2018-11-23T03:57:41.497Z,3.05
2018-11-23T04:00:17.884Z,3.05
2018-11-23T04:02:45.804Z,3.00
2018-11-23T04:05:14.026Z,3.03
2018-11-23T04:07:41.969Z,3.05
2018-11-23T04:10:11.348Z,3.04
2018-11-23T04:12:39.568Z,3.18
2018-11-23T04:15:08.322Z,3.17
2018-11-23T04:17:36.635Z,3.19
2018-11-23T04:20:05.763Z,3.16
2018-11-23T04:22:34.003Z,3.29
2018-11-23T04:25:02.254Z,3.41
2018-11-23T04:27:30.183Z,3.43
2018-11-23T04:29:58.109Z,3.56
2018-11-23T04:32:26.050Z,3.58
2018-11-23T04:34:53.969Z,3.67
2018-11-23T04:37:21.877Z,3.83
2018-11-23T04:39:50.174Z,3.72
2018-11-23T04:42:18.100Z,3.83
2018-11-23T04:44:46.038Z,3.88
2018-11-23T04:47:14.304Z,3.85
2018-11-23T04:49:42.231Z,3.92
2018-11-23T04:52:10.155Z,3.99
2018-11-23T04:54:38.396Z,3.94
2018-11-23T04:57:06.326Z,4.10
2018-11-23T04:59:34.249Z,4.09
2018-11-23T05:02:02.175Z,4.07
2018-11-23T05:04:30.111Z,4.16
2018-11-23T05:06:58.014Z,4.06
2018-11-23T05:09:26.248Z,4.12
2018-11-23T05:11:54.175Z,4.06
2018-11-23T05:14:22.484Z,4.12
2018-11-23T05:16:50.717Z,3.98
2018-11-23T05:19:18.616Z,3.82
2018-11-23T05:21:46.743Z,3.88
2018-11-23T05:24:14.650Z,3.79
2018-11-23T05:26:42.955Z,3.73
2018-11-23T05:29:10.865Z,3.80
2018-11-23T05:31:38.792Z,3.76
2018-11-23T05:34:07.039Z,3.73
2018-11-23T05:36:35.570Z,3.66
2018-11-23T05:39:04.810Z,3.72
2018-11-23T05:41:33.077Z,3.66
2018-11-23T05:44:01.012Z,3.55
2018-11-23T05:46:29.282Z,3.48
2018-11-23T05:48:57.282Z,3.57
2018-11-23T05:51:25.206Z,3.49
2018-11-23T05:53:53.099Z,3.47
2018-11-23T05:56:21.692Z,3.43
2018-11-23T05:58:49.715Z,3.53
2018-11-23T06:01:17.631Z,3.56
2018-11-23T06:03:45.527Z,3.55
2018-11-23T06:06:13.482Z,3.57
2018-11-23T06:08:41.434Z,3.54
2018-11-23T06:11:09.674Z,3.59
2018-11-23T06:13:37.637Z,3.72
2018-11-23T06:16:05.665Z,3.84
2018-11-23T06:18:33.891Z,3.76
2018-11-23T06:21:01.793Z,3.89
2018-11-23T06:23:30.210Z,3.79
2018-11-23T06:26:01.747Z,3.82
2018-11-23T06:28:29.693Z,3.79
2018-11-23T06:30:57.971Z,3.81
2018-11-23T06:33:31.531Z,3.86
2018-11-23T06:35:59.455Z,3.95
2018-11-23T06:38:27.733Z,3.88
2018-11-23T06:40:55.666Z,3.88
2018-11-23T06:43:23.671Z,3.91
2018-11-23T06:45:51.606Z,3.94
2018-11-23T06:48:19.547Z,3.92
2018-11-23T06:50:47.874Z,3.92
2018-11-23T06:53:16.074Z,3.90
2018-11-23T06:55:44.020Z,3.81
2018-11-23T06:58:11.991Z,3.76
2018-11-23T07:00:39.927Z,3.75
2018-11-23T07:03:07.876Z,3.74
2018-11-23T07:05:36.644Z,3.72
2018-11-23T07:08:04.930Z,3.67
2018-11-23T07:10:32.830Z,3.67
2018-11-23T07:13:01.064Z,3.69
2018-11-23T07:15:29.009Z,3.73
2018-11-23T07:17:57.127Z,3.75
2018-11-23T07:20:25.046Z,3.76
2018-11-23T07:22:52.962Z,3.84
2018-11-23T07:25:20.872Z,3.88
2018-11-23T07:27:48.807Z,3.89
2018-11-23T07:30:19.081Z,4.03
2018-11-23T07:32:47.386Z,4.12
2018-11-23T07:35:15.853Z,4.10
2018-11-23T07:37:43.836Z,4.13
2018-11-23T07:40:49.659Z,4.14
2018-11-23T07:43:17.619Z,4.09
2018-11-23T07:45:46.186Z,4.19
2018-11-23T07:48:14.109Z,4.26
2018-11-23T07:50:42.035Z,4.23
2018-11-23T07:53:09.956Z,4.13
2018-11-23T07:55:38.678Z,4.22
2018-11-23T07:58:07.942Z,4.21
2018-11-23T08:00:36.231Z,4.39
2018-11-23T08:03:04.443Z,4.50
2018-11-23T08:05:32.662Z,4.66
2018-11-23T08:08:00.602Z,4.69
2018-11-23T08:10:27.780Z,4.86
2018-11-23T08:12:55.716Z,4.93
2018-11-23T08:15:25.350Z,5.42
2018-11-23T08:17:53.355Z,6.86
2018-11-23T08:20:22.503Z,7.67
2018-11-23T08:23:50.500Z,8.78
2018-11-23T08:26:18.496Z,9.24
2018-11-23T08:28:46.389Z,9.42
2018-11-23T08:31:14.276Z,9.70
2018-11-23T08:33:42.226Z,10.13
2018-11-23T08:36:10.135Z,9.78
2018-11-23T08:38:38.067Z,9.67
2018-11-23T08:41:05.960Z,9.58
2018-11-23T08:43:33.858Z,10.23
2018-11-23T08:46:01.758Z,9.95
2018-11-23T08:48:29.677Z,10.25
2018-11-23T08:50:57.586Z,10.56
2018-11-23T08:53:32.329Z,10.06
2018-11-23T08:56:00.296Z,10.32
2018-11-23T08:58:28.188Z,10.51
2018-11-23T09:00:56.145Z,10.53
2018-11-23T09:03:24.028Z,10.58
2018-11-23T09:05:51.981Z,11.10
2018-11-23T09:08:19.905Z,10.56
2018-11-23T09:10:47.870Z,10.40
2018-11-23T09:13:15.781Z,10.35
2018-11-23T09:15:43.684Z,10.59
2018-11-23T09:18:11.668Z,10.49
2018-11-23T09:20:39.596Z,10.00
2018-11-23T09:23:07.460Z,9.94
2018-11-23T09:25:35.352Z,9.72
2018-11-23T09:28:03.276Z,9.13
2018-11-23T09:30:31.181Z,8.83
2018-11-23T09:32:59.115Z,9.69
2018-11-23T09:35:27.752Z,9.51
2018-11-23T09:37:55.648Z,9.80
2018-11-23T09:40:25.219Z,8.95
2018-11-23T09:42:53.396Z,8.87
2018-11-23T09:45:22.696Z,9.76
2018-11-23T09:47:52.023Z,10.25
2018-11-23T09:50:21.131Z,9.85
2018-11-23T09:52:50.310Z,9.44
2018-11-23T09:55:18.773Z,9.43
2018-11-23T09:57:46.739Z,9.51
2018-11-23T10:00:16.825Z,9.67
2018-11-23T10:02:45.607Z,9.64
2018-11-23T10:05:14.448Z,9.57
2018-11-23T10:07:43.831Z,9.59
2018-11-23T10:10:12.537Z,9.41
2018-11-23T10:12:40.612Z,9.57
2018-11-23T10:15:09.509Z,9.86
2018-11-23T10:17:37.407Z,10.05
2018-11-23T10:20:09.432Z,10.04
2018-11-23T10:22:37.341Z,9.94
2018-11-23T10:25:06.564Z,10.10
2018-11-23T10:27:34.478Z,10.24
2018-11-23T10:30:02.556Z,10.38
2018-11-23T10:32:30.457Z,10.14
2018-11-23T10:34:58.379Z,10.35
2018-11-23T10:37:26.325Z,10.85
2018-11-23T10:39:54.244Z,11.39
2018-11-23T10:42:22.236Z,11.41
2018-11-23T10:44:50.100Z,11.48
2018-11-23T10:47:18.026Z,12.00
2018-11-23T10:49:45.924Z,12.35
2018-11-23T10:52:13.872Z,12.97
2018-11-23T10:54:41.784Z,13.51
2018-11-23T10:57:09.721Z,13.91
2018-11-23T10:59:37.647Z,14.61
2018-11-23T11:03:11.388Z,15.33
2018-11-23T11:05:57.148Z,14.00
2018-11-23T11:08:25.088Z,12.78
2018-11-23T11:10:53.072Z,12.02
2018-11-23T11:13:20.984Z,12.02
2018-11-23T11:15:48.913Z,11.82
2018-11-23T11:18:16.823Z,11.21
2018-11-23T11:20:44.756Z,11.01
2018-11-23T11:23:12.692Z,11.15
2018-11-23T11:25:40.628Z,11.51
2018-11-23T11:28:08.562Z,11.59
2018-11-23T11:30:36.469Z,11.50
2018-11-23T11:33:04.404Z,11.37
2018-11-23T11:35:32.367Z,11.21
2018-11-23T11:38:00.311Z,11.24
2018-11-23T11:40:28.233Z,11.30
2018-11-23T11:42:56.142Z,11.37
2018-11-23T11:45:24.081Z,11.49
2018-11-23T11:47:51.989Z,11.37
2018-11-23T11:50:19.941Z,11.55
2018-11-23T11:52:48.508Z,11.61
2018-11-23T11:55:17.635Z,12.09
2018-11-23T11:57:46.206Z,13.48
2018-11-23T12:00:17.470Z,14.67
2018-11-23T12:02:45.501Z,14.63
2018-11-23T12:05:13.926Z,13.41
2018-11-23T12:07:41.964Z,13.08
2018-11-23T12:10:13.404Z,14.14
2018-11-23T12:12:41.912Z,13.77
2018-11-23T12:15:10.878Z,13.48
2018-11-23T12:17:38.968Z,13.22
2018-11-23T12:20:08.952Z,12.74
2018-11-23T12:22:36.901Z,12.24
2018-11-23T12:25:05.222Z,11.99
2018-11-23T12:27:33.130Z,12.45
2018-11-23T12:30:01.041Z,12.32
2018-11-23T12:32:28.961Z,12.14
2018-11-23T12:34:56.864Z,12.47
2018-11-23T12:37:25.065Z,12.56
2018-11-23T12:39:52.928Z,12.98
2018-11-23T12:42:20.826Z,14.07
2018-11-23T12:44:48.757Z,13.97
2018-11-23T12:47:16.662Z,12.99
2018-11-23T12:49:44.556Z,12.73
2018-11-23T12:52:12.492Z,12.33
2018-11-23T12:54:40.492Z,12.15
2018-11-23T12:57:08.424Z,12.30
2018-11-23T12:59:36.435Z,12.32
2018-11-23T13:02:04.348Z,12.03
2018-11-23T13:04:32.268Z,12.11
2018-11-23T13:07:00.191Z,12.15
2018-11-23T13:09:28.100Z,12.27
2018-11-23T13:11:56.025Z,12.46
2018-11-23T13:14:23.941Z,12.46
2018-11-23T13:16:51.866Z,12.37
2018-11-23T13:19:19.776Z,12.17
2018-11-23T13:21:47.713Z,12.09
2018-11-23T13:24:15.624Z,12.16
2018-11-23T13:26:43.545Z,11.93
2018-11-23T13:29:16.272Z,11.90
2018-11-23T13:31:39.528Z,11.93
2018-11-23T13:34:07.424Z,11.87
2018-11-23T13:36:35.392Z,11.99
2018-11-23T13:39:03.332Z,12.01
2018-11-23T13:41:31.266Z,12.02
2018-11-23T13:43:59.162Z,11.99
2018-11-23T13:46:27.081Z,12.23
2018-11-23T13:48:55.022Z,12.21
2018-11-23T13:51:22.921Z,12.11
2018-11-23T13:53:50.916Z,12.13
2018-11-23T13:56:18.812Z,12.14
2018-11-23T13:58:46.789Z,12.19
2018-11-23T14:01:14.704Z,12.11
2018-11-23T14:03:42.677Z,12.08
2018-11-23T14:06:10.608Z,11.99
2018-11-23T14:08:38.524Z,11.93
2018-11-23T14:11:06.475Z,11.97
2018-11-23T14:13:34.416Z,11.94
2018-11-23T14:16:02.313Z,12.06
2018-11-23T14:18:30.272Z,12.12
2018-11-23T14:20:58.248Z,12.15
2018-11-23T14:23:26.150Z,12.28
2018-11-23T14:25:54.883Z,12.00
2018-11-23T14:28:22.073Z,12.12
2018-11-23T14:30:50.030Z,12.05
2018-11-23T14:33:17.958Z,12.04
2018-11-23T14:35:45.860Z,11.96
2018-11-23T14:38:13.809Z,11.92
2018-11-23T14:40:41.711Z,11.75
2018-11-23T14:43:09.617Z,11.81
2018-11-23T14:45:37.528Z,11.71
2018-11-23T14:48:08.266Z,11.67
2018-11-23T14:50:40.424Z,11.57
2018-11-23T14:53:08.369Z,11.51
2018-11-23T14:55:36.324Z,11.36
2018-11-23T14:58:04.250Z,11.32
2018-11-23T15:00:34.586Z,11.23
2018-11-23T15:03:03.376Z,11.13
2018-11-23T15:05:31.276Z,11.07
2018-11-23T15:07:59.193Z,11.08
2018-11-23T15:10:28.504Z,10.92
2018-11-23T15:12:57.804Z,10.77
2018-11-23T15:15:27.169Z,10.66
2018-11-23T15:17:55.796Z,10.53
2018-11-23T15:20:27.428Z,10.38
2018-11-23T15:22:57.109Z,10.26
2018-11-23T15:25:25.013Z,10.17
2018-11-23T15:27:53.156Z,10.07
2018-11-23T15:30:23.693Z,9.95
2018-11-23T15:32:51.612Z,9.90
2018-11-23T15:35:19.502Z,9.80
2018-11-23T15:37:47.408Z,9.70
2018-11-23T15:40:17.961Z,9.59
2018-11-23T15:42:46.442Z,9.47
2018-11-23T15:45:15.915Z,9.41
2018-11-23T15:47:43.832Z,9.32
2018-11-23T15:50:18.085Z,9.27
2018-11-23T15:52:46.601Z,9.19
2018-11-23T15:55:17.273Z,9.12
2018-11-23T15:57:46.013Z,9.05
2018-11-23T16:00:16.357Z,8.98
2018-11-23T16:02:45.247Z,8.92
2018-11-23T16:05:13.679Z,8.85
2018-11-23T16:07:41.778Z,8.82
2018-11-23T16:10:15.718Z,8.78
2018-11-23T16:12:44.270Z,8.73
2018-11-23T16:15:12.185Z,8.71
2018-11-23T16:17:40.148Z,8.70
2018-11-23T16:20:13.644Z,8.71
2018-11-23T16:22:41.719Z,8.68
2018-11-23T16:25:10.740Z,8.62
2018-11-23T16:27:39.257Z,8.61
2018-11-23T16:30:14.284Z,8.58
2018-11-23T16:32:42.532Z,8.53
2018-11-23T16:35:10.467Z,8.54
2018-11-23T16:37:38.360Z,8.53
2018-11-23T16:40:08.348Z,8.58
2018-11-23T16:42:36.652Z,8.53
2018-11-23T16:45:06.340Z,8.60
2018-11-23T16:47:34.500Z,8.44
2018-11-23T16:50:02.437Z,8.54
2018-11-23T16:52:30.398Z,8.49
2018-11-23T16:54:58.305Z,8.54
2018-11-23T16:57:26.680Z,8.48
2018-11-23T16:59:54.605Z,8.46
2018-11-23T17:02:22.491Z,8.54
2018-11-23T17:04:50.581Z,8.55
2018-11-23T17:07:18.489Z,8.55
2018-11-23T17:09:46.437Z,8.53
2018-11-23T17:12:14.355Z,8.54
2018-11-23T17:14:42.261Z,8.49
2018-11-23T17:17:10.180Z,8.59
2018-11-23T17:19:39.304Z,8.56
2018-11-23T17:22:07.546Z,8.51
2018-11-23T17:24:35.509Z,8.60
2018-11-23T17:27:03.447Z,8.56
2018-11-23T17:29:31.375Z,8.65
2018-11-23T17:31:59.268Z,8.55
2018-11-23T17:34:27.207Z,8.62
2018-11-23T17:36:55.140Z,8.67
2018-11-23T17:39:23.058Z,8.62
2018-11-23T17:41:50.948Z,8.51
2018-11-23T17:44:18.876Z,8.50
2018-11-23T17:46:46.772Z,8.47
2018-11-23T17:49:14.702Z,8.52
2018-11-23T17:51:42.657Z,8.57
2018-11-23T17:54:10.588Z,8.53
2018-11-23T17:56:38.489Z,8.55
2018-11-23T17:59:06.422Z,8.53
2018-11-23T18:01:34.353Z,8.49
2018-11-23T18:04:02.286Z,8.49
2018-11-23T18:06:30.181Z,8.47
2018-11-23T18:08:58.541Z,8.51
2018-11-23T18:11:26.443Z,8.48
2018-11-23T18:13:54.372Z,8.48
2018-11-23T18:16:22.321Z,8.56
2018-11-23T18:18:50.256Z,8.62
2018-11-23T18:21:18.152Z,8.59
2018-11-23T18:23:46.073Z,8.59
2018-11-23T18:26:13.982Z,8.47
2018-11-23T18:28:41.915Z,8.31
2018-11-23T18:31:09.829Z,8.34
2018-11-23T18:33:37.786Z,8.28
2018-11-23T18:36:05.701Z,8.26
2018-11-23T18:38:33.663Z,8.19
2018-11-23T18:41:01.644Z,8.25
2018-11-23T18:43:29.534Z,8.08
2018-11-23T18:45:57.497Z,7.94
2018-11-23T18:48:25.462Z,7.88
2018-11-23T18:50:53.409Z,7.92
2018-11-23T18:53:21.321Z,8.02
2018-11-23T18:55:49.248Z,7.97
2018-11-23T18:58:17.316Z,7.81
2018-11-23T19:00:45.244Z,7.90
2018-11-23T19:03:13.452Z,7.83
2018-11-23T19:05:41.356Z,7.81
2018-11-23T19:08:09.285Z,7.80
2018-11-23T19:10:37.398Z,7.78
2018-11-23T19:13:06.052Z,7.70
2018-11-23T19:15:33.976Z,7.65
2018-11-23T19:18:01.917Z,7.63
2018-11-23T19:20:29.881Z,7.78
2018-11-23T19:22:57.788Z,7.69
2018-11-23T19:25:25.732Z,7.70
2018-11-23T19:27:53.656Z,7.53
2018-11-23T19:30:28.144Z,7.55
2018-11-23T19:32:50.921Z,7.48
2018-11-23T19:35:18.828Z,7.49
2018-11-23T19:37:46.756Z,7.48
2018-11-23T19:40:15.601Z,7.53
2018-11-23T19:42:44.151Z,7.49
2018-11-23T19:45:13.237Z,7.43
2018-11-23T19:47:41.176Z,7.33
2018-11-23T19:50:18.128Z,7.42
2018-11-23T19:52:46.253Z,7.27
2018-11-23T19:55:15.036Z,7.23
2018-11-23T19:57:42.984Z,7.17
2018-11-23T20:00:21.136Z,7.14
2018-11-23T20:02:49.344Z,7.07
2018-11-23T20:05:17.398Z,6.90
2018-11-23T20:07:46.366Z,6.88
2018-11-23T20:10:15.585Z,6.92
2018-11-23T20:12:44.356Z,6.92
2018-11-23T20:15:14.699Z,6.99
2018-11-23T20:17:42.677Z,7.00
2018-11-23T20:20:12.168Z,6.99
2018-11-23T20:22:40.110Z,7.01
2018-11-23T20:25:12.400Z,6.92
2018-11-23T20:27:40.358Z,6.93
2018-11-23T20:30:16.821Z,6.80
2018-11-23T20:32:44.829Z,6.88
2018-11-23T20:35:15.535Z,6.79
2018-11-23T20:37:43.494Z,6.80
2018-11-23T20:40:16.196Z,6.75
2018-11-23T20:42:44.253Z,6.72
2018-11-23T20:45:12.628Z,6.65
2018-11-23T20:47:40.634Z,6.73
2018-11-23T20:50:10.309Z,6.72
2018-11-23T20:52:38.369Z,6.64
2018-11-23T20:55:11.663Z,6.46
2018-11-23T20:57:39.660Z,6.54
2018-11-23T21:00:11.515Z,6.41
2018-11-23T21:02:39.505Z,6.56
2018-11-23T21:05:09.289Z,6.50
2018-11-23T21:07:37.490Z,6.52
2018-11-23T21:10:09.395Z,6.60
2018-11-23T21:12:37.329Z,6.51
2018-11-23T21:15:10.566Z,6.48
2018-11-23T21:17:38.529Z,6.62
2018-11-23T21:20:06.948Z,6.54
2018-11-23T21:22:36.150Z,6.36
2018-11-23T21:25:04.165Z,6.44
2018-11-23T21:27:32.123Z,6.46
2018-11-23T21:30:00.061Z,6.55
2018-11-23T21:32:28.020Z,6.51
2018-11-23T21:34:55.901Z,6.54
2018-11-23T21:37:23.809Z,6.43
2018-11-23T21:39:51.710Z,6.52
2018-11-23T21:42:19.681Z,6.46
2018-11-23T21:44:47.588Z,6.45
2018-11-23T21:47:15.521Z,6.34
2018-11-23T21:49:43.453Z,6.52
2018-11-23T21:52:11.367Z,6.36
2018-11-23T21:54:39.309Z,6.38
2018-11-23T21:57:07.217Z,6.33
2018-11-23T21:59:35.146Z,6.44
2018-11-23T22:02:07.059Z,6.35
2018-11-23T22:04:30.973Z,6.31
2018-11-23T22:06:58.888Z,6.28
2018-11-23T22:09:26.779Z,6.31
2018-11-23T22:11:54.697Z,6.22
2018-11-23T22:14:22.595Z,6.18
2018-11-23T22:16:50.498Z,6.13
2018-11-23T22:19:18.412Z,6.19
2018-11-23T22:21:46.276Z,6.10
2018-11-23T22:24:14.192Z,6.11
2018-11-23T22:26:42.077Z,6.02
2018-11-23T22:29:09.972Z,5.96
2018-11-23T22:31:37.878Z,5.97
2018-11-23T22:34:05.763Z,6.03
2018-11-23T22:36:33.655Z,6.09
2018-11-23T22:39:01.565Z,6.12
2018-11-23T22:41:29.439Z,5.96
2018-11-23T22:43:57.320Z,6.13
2018-11-23T22:46:25.253Z,6.09
2018-11-23T22:48:53.171Z,6.15
2018-11-23T22:51:21.097Z,6.14
2018-11-23T22:53:48.989Z,6.12
2018-11-23T22:56:16.882Z,6.09
2018-11-23T22:58:44.849Z,6.12
2018-11-23T23:01:12.744Z,6.01
2018-11-23T23:03:40.628Z,6.04
2018-11-23T23:06:08.583Z,6.11
2018-11-23T23:08:36.471Z,6.11
2018-11-23T23:11:04.485Z,6.05
2018-11-23T23:13:32.949Z,5.99
2018-11-23T23:16:00.896Z,5.92
2018-11-23T23:18:28.826Z,6.01
2018-11-23T23:20:56.742Z,6.00
2018-11-23T23:23:24.625Z,5.87
2018-11-23T23:25:52.503Z,5.93
2018-11-23T23:28:20.431Z,5.84
2018-11-23T23:30:48.330Z,5.75
2018-11-23T23:33:16.220Z,5.66
2018-11-23T23:35:44.120Z,5.64
2018-11-23T23:38:12.045Z,5.58
2018-11-23T23:40:39.926Z,5.55
2018-11-23T23:43:07.843Z,5.50
2018-11-23T23:45:35.747Z,5.44
2018-11-23T23:48:03.641Z,5.49
2018-11-23T23:50:31.569Z,5.39
2018-11-23T23:52:59.476Z,5.32
2018-11-23T23:55:27.400Z,5.35
2018-11-23T23:57:55.312Z,5.33
